Time;durP1;ratioP1;P1;durP2;ratioP2;P2;SDS_P1;SDS_P2;PMS_P1;PMS_P2;Temp;Humidity;BMP_temperature;BMP_pressure;BME280_temperature;BME280_humidity;BME280_pressure;Samples;Min_cycle;Max_cycle;Signal;HPM_P1;HPM_P2
2022/06/01 00:02:28;;;;;;;11.00;7.10;;;;;;;14.42;92.30;97404.73;109815;1251;71172;-68
2022/06/01 00:04:59;;;;;;;7.50;6.10;;;;;;;14.42;92.82;97404.04;109767;1251;67609;-69
2022/06/01 00:07:29;;;;;;;7.10;5.00;;;;;;;14.40;92.29;97405.92;109954;1251;69447;-68
2022/06/01 00:10:00;;;;;;;10.50;6.90;;;;;;;14.41;92.69;97403.56;109592;1251;59673;-67
2022/06/01 00:12:31;;;;;;;8.70;6.10;;;;;;;14.42;93.26;97403.63;109760;1251;60142;-69
2022/06/01 00:15:03;;;;;;;9.60;6.80;;;;;;;14.41;92.54;97400.19;109595;1251;70770;-70
2022/06/01 00:17:34;;;;;;;8.30;6.50;;;;;;;14.42;92.96;97400.68;109568;1251;67686;-68
2022/06/01 00:20:05;;;;;;;9.50;6.90;;;;;;;14.41;92.57;97397.11;109830;1251;69472;-68
2022/06/01 00:22:36;;;;;;;10.30;6.90;;;;;;;14.40;93.15;97397.65;109517;1253;59741;-69
2022/06/01 00:25:08;;;;;;;9.00;6.60;;;;;;;14.40;93.79;97395.77;109746;1251;59695;-69
2022/06/01 00:27:38;;;;;;;8.70;6.20;;;;;;;14.39;92.95;97398.13;109800;1251;70798;-70
2022/06/01 00:30:12;;;;;;;7.70;5.80;;;;;;;14.38;92.94;97402.91;109592;1251;68818;-69
2022/06/01 00:32:43;;;;;;;8.00;5.90;;;;;;;14.37;93.05;97399.38;109546;1253;68732;-68
2022/06/01 00:35:16;;;;;;;11.50;7.70;;;;;;;14.37;92.30;97406.22;109575;1251;59763;-69
2022/06/01 00:37:46;;;;;;;10.00;8.00;;;;;;;14.35;92.48;97404.98;109786;1251;60057;-68
2022/06/01 00:40:19;;;;;;;10.00;6.70;;;;;;;14.33;91.91;97406.23;109843;1250;71543;-69
2022/06/01 00:42:52;;;;;;;9.60;6.30;;;;;;;14.31;91.04;97407.13;110575;1250;68659;-68
2022/06/01 00:45:24;;;;;;;7.90;6.20;;;;;;;14.31;90.63;97414.29;109848;1250;68626;-70
2022/06/01 00:47:56;;;;;;;8.60;6.70;;;;;;;14.30;91.45;97417.30;109914;1251;59695;-69
2022/06/01 00:50:39;;;;;;;9.90;6.60;;;;;;;14.27;92.33;97408.13;109940;1250;59702;-69
2022/06/01 00:53:14;;;;;;;8.60;7.00;;;;;;;14.25;93.06;97407.09;109829;1251;71529;-69
2022/06/01 00:56:18;;;;;;;8.10;6.00;;;;;;;14.19;91.34;97406.85;109762;1251;66669;-71
2022/06/01 00:58:51;;;;;;;9.50;6.20;;;;;;;14.15;90.11;97413.95;109189;1259;69333;-69
2022/06/01 01:01:21;;;;;;;7.80;5.70;;;;;;;14.10;89.92;97410.46;109158;1259;59783;-68
2022/06/01 01:03:56;;;;;;;7.80;5.50;;;;;;;14.06;90.06;97410.20;109114;1259;59744;-68
2022/06/01 01:06:28;;;;;;;9.00;6.30;;;;;;;14.02;91.05;97408.54;109133;1257;70704;-70
2022/06/01 01:08:59;;;;;;;8.00;5.90;;;;;;;13.99;92.52;97409.66;109185;1259;67685;-70
2022/06/01 01:11:51;;;;;;;7.50;5.20;;;;;;;13.96;93.47;97411.67;109244;1258;69412;-70
2022/06/01 01:14:25;;;;;;;7.60;5.50;;;;;;;13.93;92.21;97414.80;109168;1259;59817;-69
2022/06/01 01:16:57;;;;;;;9.30;5.90;;;;;;;13.89;92.32;97416.14;109115;1259;59675;-69
2022/06/01 01:19:36;;;;;;;7.70;6.40;;;;;;;13.86;92.75;97412.81;109151;1259;71625;-69
2022/06/01 01:22:39;;;;;;;7.00;5.40;;;;;;;13.80;90.97;97413.61;109139;1259;67739;-69
2022/06/01 01:25:30;;;;;;;7.90;5.30;;;;;;;13.76;89.74;97409.75;109052;1258;68673;-68
2022/06/01 01:28:05;;;;;;;7.00;5.40;;;;;;;13.72;89.30;97410.23;109278;1257;59796;-68
2022/06/01 01:30:37;;;;;;;9.00;5.90;;;;;;;13.70;88.28;97404.28;109782;1258;58856;-69
2022/06/01 01:33:13;;;;;;;9.10;6.20;;;;;;;13.69;88.62;97400.93;109262;1259;70798;-71
2022/06/01 01:35:48;;;;;;;7.40;5.40;;;;;;;13.65;90.69;97398.56;109488;1251;67669;-67
2022/06/01 01:38:48;;;;;;;7.50;6.10;;;;;;;13.62;92.12;97391.51;109938;1251;68647;-70
2022/06/01 01:41:27;;;;;;;9.60;6.80;;;;;;;13.56;92.39;97389.71;109739;1251;59678;-69
2022/06/01 01:44:04;;;;;;;8.80;6.70;;;;;;;13.49;92.65;97382.86;109717;1251;59695;-69
2022/06/01 01:46:37;;;;;;;9.40;6.90;;;;;;;13.40;92.97;97384.66;109814;1251;71517;-67
2022/06/01 01:49:08;;;;;;;10.30;7.60;;;;;;;13.32;92.31;97387.45;109932;1251;68609;-70
2022/06/01 01:51:39;;;;;;;11.70;8.40;;;;;;;13.24;93.03;97381.74;109907;1250;68837;-70
2022/06/01 01:54:45;;;;;;;9.60;7.60;;;;;;;13.19;92.92;97383.38;109717;1252;59666;-71
2022/06/01 01:57:21;;;;;;;8.70;6.70;;;;;;;13.15;92.79;97382.34;109899;1251;59727;-71
2022/06/01 02:00:36;;;;;;;12.70;8.60;;;;;;;13.12;92.68;97385.67;109755;1251;69770;-69
2022/06/01 02:03:47;;;;;;;12.60;9.10;;;;;;;13.11;94.70;97382.65;109694;1251;67745;-69
2022/06/01 02:06:28;;;;;;;16.10;11.30;;;;;;;13.09;93.41;97382.63;109171;1259;69458;-68
2022/06/01 02:09:09;;;;;;;11.60;6.90;;;;;;;13.09;92.70;97384.61;109113;1259;59775;-67
2022/06/01 02:14:46;;;;;;;14.10;9.00;;;;;;;13.05;94.08;97387.36;109156;1259;70772;-70
2022/06/01 02:17:19;;;;;;;10.30;7.40;;;;;;;13.03;94.81;97388.23;109700;1258;68876;-68
2022/06/01 02:20:16;;;;;;;9.10;6.50;;;;;;;13.00;94.41;97388.08;109114;1258;69244;-69
2022/06/01 02:22:48;;;;;;;7.00;5.40;;;;;;;12.97;91.82;97386.25;109100;1259;59750;-69
2022/06/01 02:25:18;;;;;;;7.80;6.20;;;;;;;12.95;91.44;97383.30;109079;1259;59864;-70
2022/06/01 02:27:51;;;;;;;9.90;7.30;;;;;;;12.94;92.69;97383.75;109166;1259;71584;-70
2022/06/01 02:30:31;;;;;;;9.70;6.90;;;;;;;12.92;93.94;97387.21;109155;1259;68708;-70
2022/06/01 02:33:06;;;;;;;10.60;7.40;;;;;;;12.89;94.01;97389.38;109144;1258;69307;-69
2022/06/01 02:35:43;;;;;;;8.40;5.50;;;;;;;12.85;93.22;97388.83;109297;1259;59689;-71
2022/06/01 02:38:18;;;;;;;8.70;5.70;;;;;;;12.81;93.11;97392.52;109136;1259;59699;-69
2022/06/01 02:40:48;;;;;;;11.10;7.60;;;;;;;12.78;93.26;97393.14;109130;1258;70790;-66
2022/06/01 02:43:18;;;;;;;11.00;7.40;;;;;;;12.74;94.36;97403.90;109589;1253;67794;-71
2022/06/01 02:45:48;;;;;;;9.60;7.20;;;;;;;12.70;94.36;97403.83;109670;1253;68949;-68
2022/06/01 02:48:19;;;;;;;7.90;6.10;;;;;;;12.67;94.19;97406.02;109506;1253;59726;-69
2022/06/01 02:50:51;;;;;;;10.20;7.40;;;;;;;12.66;93.12;97401.76;109591;1252;59699;-71
2022/06/01 02:53:20;;;;;;;9.20;7.60;;;;;;;12.65;93.30;97400.23;109581;1253;70762;-71
2022/06/01 02:55:50;;;;;;;10.30;6.30;;;;;;;12.64;95.02;97399.14;109484;1251;67940;-69
2022/06/01 02:58:21;;;;;;;;;;;;;;;12.60;93.80;97401.55;109520;1253;69422;-69
2022/06/01 03:00:53;;;;;;;;;;;;;;;12.57;93.75;97401.23;109520;1252;59766;-69
2022/06/01 03:03:22;;;;;;;9.10;6.90;;;;;;;12.54;94.01;97402.05;109938;1253;58874;-68
2022/06/01 03:05:53;;;;;;;;;;;;;;;12.51;94.24;97405.77;109739;1253;71373;-70
2022/06/01 03:08:25;;;;;;;11.20;7.80;;;;;;;12.49;94.44;97410.27;109509;1252;66892;-69
2022/06/01 03:10:56;;;;;;;11.20;7.70;;;;;;;12.50;95.24;97409.35;109559;1253;69307;-69
2022/06/01 03:13:25;;;;;;;;;;;;;;;12.50;95.28;97412.31;109521;1253;59758;-68
2022/06/01 03:15:55;;;;;;;9.80;8.00;;;;;;;12.51;94.98;97407.20;109526;1253;60154;-68
2022/06/01 03:18:25;;;;;;;10.30;8.10;;;;;;;12.54;95.87;97408.73;109584;1253;71455;-68
2022/06/01 03:20:55;;;;;;;;;;;;;;;12.55;96.34;97413.87;109422;1253;68487;-69
2022/06/01 03:23:26;;;;;;;12.90;8.20;;;;;;;12.54;96.12;97417.43;109477;1253;68621;-68
2022/06/01 03:25:56;;;;;;;16.30;9.10;;;;;;;12.55;95.12;97421.35;109570;1252;59757;-69
2022/06/01 03:28:25;;;;;;;;;;;;;;;12.55;94.57;97420.45;109510;1254;59755;-68
2022/06/01 03:30:55;;;;;;;12.60;7.90;;;;;;;12.57;94.86;97420.55;109559;1253;70621;-69
2022/06/01 03:33:25;;;;;;;13.90;8.50;;;;;;;12.58;96.02;97420.23;109535;1252;68183;-68
2022/06/01 03:35:55;;;;;;;14.50;7.90;;;;;;;12.60;96.45;97424.14;109625;1253;69505;-70
2022/06/01 03:38:25;;;;;;;10.70;7.80;;;;;;;12.61;96.85;97420.88;109600;1251;59762;-69
2022/06/01 03:40:54;;;;;;;;;;;;;;;12.63;96.78;97417.93;109852;1251;59698;-69
2022/06/01 03:43:24;;;;;;;9.20;6.20;;;;;;;12.65;95.15;97412.67;109819;1253;71562;-69
2022/06/01 03:45:56;;;;;;;10.50;7.40;;;;;;;12.72;92.76;97416.15;109664;1253;68747;-70
2022/06/01 03:48:31;;;;;;;9.90;7.90;;;;;;;12.78;92.67;97420.04;109809;1251;69333;-68
2022/06/01 03:51:00;;;;;;;10.10;7.50;;;;;;;12.84;93.03;97423.91;109976;1250;59678;-68
2022/06/01 03:53:31;;;;;;;12.30;8.60;;;;;;;12.91;93.48;97415.48;109643;1253;59685;-68
2022/06/01 03:56:02;;;;;;;11.50;7.90;;;;;;;12.98;92.54;97415.27;109567;1251;71550;-70
2022/06/01 03:58:32;;;;;;;8.40;6.60;;;;;;;13.05;92.24;97421.98;109736;1253;67681;-69
2022/06/01 04:01:03;;;;;;;12.60;8.30;;;;;;;13.14;92.99;97431.05;109670;1253;69116;-67
2022/06/01 04:03:33;;;;;;;7.80;5.80;;;;;;;13.21;93.79;97432.41;109437;1253;59775;-70
2022/06/01 04:06:03;;;;;;;9.50;7.80;;;;;;;13.28;92.27;97429.39;109815;1250;59716;-69
2022/06/01 04:08:33;;;;;;;10.40;7.10;;;;;;;13.34;93.12;97426.60;109646;1251;71695;-69
2022/06/01 04:11:03;;;;;;;10.20;7.40;;;;;;;13.42;93.53;97429.77;109602;1253;67812;-69
2022/06/01 04:13:33;;;;;;;8.30;6.20;;;;;;;13.52;93.76;97427.41;109574;1251;68534;-69
2022/06/01 04:16:02;;;;;;;;;;;;;;;13.61;93.57;97426.08;109707;1251;59752;-69
2022/06/01 04:18:47;;;;;;;9.10;7.20;;;;;;;13.71;93.46;97428.16;109650;1250;59661;-68
2022/06/01 04:21:23;;;;;;;8.20;6.10;;;;;;;13.84;93.29;97431.19;109671;1251;71975;-67
2022/06/01 04:23:59;;;;;;;7.00;5.30;;;;;;;13.97;93.02;97435.23;109919;1251;68451;-68
2022/06/01 04:26:28;;;;;;;8.40;6.40;;;;;;;14.12;92.41;97433.97;109897;1251;69405;-69
2022/06/01 04:28:57;;;;;;;8.70;6.50;;;;;;;14.27;92.14;97434.95;109905;1251;60121;-68
2022/06/01 04:31:27;;;;;;;8.20;6.40;;;;;;;14.41;91.25;97433.16;109799;1251;59765;-69
2022/06/01 04:33:56;;;;;;;8.00;6.90;;;;;;;14.57;91.33;97437.64;109797;1251;71611;-70
2022/06/01 04:36:25;;;;;;;9.60;6.80;;;;;;;14.69;90.70;97441.59;109736;1253;68713;-69
2022/06/01 04:38:55;;;;;;;7.20;6.30;;;;;;;14.83;90.63;97447.39;110279;1251;69337;-69
2022/06/01 04:41:26;;;;;;;7.30;6.30;;;;;;;14.97;90.28;97448.55;109562;1253;60131;-69
2022/06/01 04:43:55;;;;;;;7.60;6.70;;;;;;;15.11;89.78;97449.07;109692;1251;59803;-69
2022/06/01 04:46:25;;;;;;;9.30;5.90;;;;;;;15.26;89.45;97445.37;109669;1253;71506;-69
2022/06/01 04:48:55;;;;;;;6.50;5.70;;;;;;;15.44;89.08;97444.17;109958;1251;67549;-70
2022/06/01 04:51:24;;;;;;;8.00;6.60;;;;;;;15.61;88.15;97440.65;109708;1252;68355;-67
2022/06/01 04:53:54;;;;;;;9.90;6.70;;;;;;;15.75;86.53;97444.56;109607;1253;59696;-67
2022/06/01 04:56:23;;;;;;;8.70;6.20;;;;;;;15.90;85.90;97441.30;109497;1253;59679;-69
2022/06/01 04:58:53;;;;;;;8.80;6.30;;;;;;;16.07;86.19;97447.27;109650;1253;71387;-69
2022/06/01 05:01:23;;;;;;;10.80;7.50;;;;;;;16.19;85.13;97443.41;109552;1252;67765;-66
2022/06/01 05:03:53;;;;;;;8.30;6.80;;;;;;;16.31;84.75;97442.27;109534;1253;68625;-67
2022/06/01 05:06:22;;;;;;;10.20;6.90;;;;;;;16.58;85.52;97444.12;109650;1253;59711;-68
2022/06/01 05:08:52;;;;;;;7.90;6.20;;;;;;;16.86;82.42;97441.75;109601;1251;59699;-67
2022/06/01 05:11:22;;;;;;;7.30;6.10;;;;;;;17.30;83.55;97442.36;109694;1251;71372;-67
2022/06/01 05:13:52;;;;;;;7.10;5.00;;;;;;;17.85;85.04;97445.98;109544;1251;69028;-65
2022/06/01 05:16:23;;;;;;;6.70;5.10;;;;;;;18.40;82.47;97448.63;109649;1252;69575;-66
2022/06/01 05:18:54;;;;;;;6.30;4.60;;;;;;;18.95;82.66;97443.92;109619;1253;59697;-67
2022/06/01 05:21:24;;;;;;;5.80;4.70;;;;;;;19.46;80.65;97441.75;109832;1253;59663;-68
2022/06/01 05:23:53;;;;;;;6.00;5.00;;;;;;;19.77;73.89;97444.40;109611;1251;71981;-67
2022/06/01 05:26:22;;;;;;;7.90;5.70;;;;;;;19.97;72.98;97441.69;110043;1251;68098;-68
2022/06/01 05:28:53;;;;;;;7.50;5.00;;;;;;;19.95;69.09;97440.63;109837;1252;68371;-66
2022/06/01 05:31:22;;;;;;;7.20;5.20;;;;;;;19.83;69.23;97443.98;109798;1253;59807;-66
2022/06/01 05:33:52;;;;;;;7.20;6.10;;;;;;;19.66;70.82;97447.41;109545;1253;59730;-66
2022/06/01 05:36:21;;;;;;;6.20;5.00;;;;;;;19.50;71.21;97442.35;109700;1252;71312;-66
2022/06/01 05:38:51;;;;;;;;;;;;;;;19.46;72.02;97440.71;109761;1251;67615;-68
2022/06/01 05:41:21;;;;;;;6.20;4.60;;;;;;;19.50;72.48;97441.86;109671;1252;68455;-66
2022/06/01 05:43:51;;;;;;;6.90;5.00;;;;;;;19.55;72.06;97436.33;109618;1253;59762;-67
2022/06/01 05:46:22;;;;;;;6.00;4.80;;;;;;;19.65;72.20;97434.71;109874;1251;59685;-67
2022/06/01 05:48:52;;;;;;;8.20;5.00;;;;;;;19.67;71.75;97434.75;109615;1253;71482;-67
2022/06/01 05:51:23;;;;;;;6.40;5.70;;;;;;;19.61;71.63;97432.77;109413;1253;67849;-67
2022/06/01 05:53:56;;;;;;;6.10;4.80;;;;;;;19.54;71.13;97438.59;109624;1251;70171;-67
2022/06/01 05:56:25;;;;;;;;;;;;;;;19.56;71.36;97439.95;109545;1253;59773;-68
2022/06/01 05:58:54;;;;;;;8.10;5.00;;;;;;;19.67;71.04;97443.88;109886;1251;59696;-68
2022/06/01 06:01:26;;;;;;;8.10;5.10;;;;;;;19.72;70.83;97443.16;109822;1252;70805;-67
2022/06/01 06:03:56;;;;;;;7.10;5.50;;;;;;;19.72;70.42;97444.61;109648;1253;67903;-66
2022/06/01 06:06:25;;;;;;;;;;;;;;;19.68;70.93;97443.76;109601;1252;69506;-68
2022/06/01 06:09:07;;;;;;;7.60;5.60;;;;;;;19.77;70.73;97445.84;109695;1252;59714;-65
2022/06/01 06:11:39;;;;;;;6.30;5.10;;;;;;;19.90;70.39;97448.14;109517;1252;59779;-68
2022/06/01 06:14:09;;;;;;;6.60;4.90;;;;;;;20.07;70.38;97447.50;110474;1251;69821;-67
2022/06/01 06:16:46;;;;;;;5.90;5.00;;;;;;;20.38;69.70;97448.19;109583;1253;68422;-67
2022/06/01 06:19:16;;;;;;;5.50;4.90;;;;;;;20.78;68.98;97447.98;109521;1253;68408;-67
2022/06/01 06:21:46;;;;;;;7.10;4.90;;;;;;;21.17;66.58;97446.46;109661;1253;59710;-67
2022/06/01 06:24:19;;;;;;;5.60;4.40;;;;;;;21.49;64.85;97443.16;109644;1251;59745;-67
2022/06/01 06:26:48;;;;;;;6.70;4.50;;;;;;;21.93;65.03;97446.10;108650;1253;833281;-68
2022/06/01 06:29:18;;;;;;;;;;;;;;;22.31;63.45;97441.02;109712;1251;67809;-67
2022/06/01 06:31:47;;;;;;;5.30;4.80;;;;;;;22.48;60.85;97442.05;109661;1253;69272;-66
2022/06/01 06:34:20;;;;;;;5.70;4.80;;;;;;;22.57;60.83;97445.19;109818;1251;59771;-68
2022/06/01 06:36:49;;;;;;;7.50;4.90;;;;;;;22.54;60.35;97447.90;109620;1252;59698;-67
2022/06/01 06:39:18;;;;;;;6.40;4.30;;;;;;;22.55;59.81;97444.75;109630;1250;71552;-69
2022/06/01 06:41:49;;;;;;;6.10;4.30;;;;;;;22.56;59.86;97448.15;109488;1254;68417;-68
2022/06/01 06:44:30;;;;;;;7.90;5.00;;;;;;;22.53;60.17;97443.70;109482;1253;68719;-69
2022/06/01 06:47:17;;;;;;;5.10;4.10;;;;;;;23.18;59.96;97441.81;109441;1253;59706;-69
2022/06/01 06:49:46;;;;;;;;;;;;;;;23.70;58.75;97439.40;109612;1252;59668;-70
2022/06/01 06:52:33;;;;;;;6.60;4.90;;;;;;;23.52;57.38;97435.56;109567;1253;70492;-66
2022/06/01 06:55:03;;;;;;;10.30;5.00;;;;;;;23.68;56.96;97438.01;109652;1252;67798;-69
2022/06/01 06:57:32;;;;;;;6.50;4.60;;;;;;;23.54;56.38;97434.95;109642;1251;69476;-68
2022/06/01 07:00:07;;;;;;;6.60;5.10;;;;;;;23.72;56.21;97433.25;109814;1253;59741;-71
2022/06/01 07:02:36;;;;;;;5.20;4.00;;;;;;;23.84;56.28;97432.92;109688;1251;59698;-70
2022/06/01 07:05:06;;;;;;;6.40;4.30;;;;;;;23.98;55.61;97428.98;109620;1252;71642;-70
2022/06/01 07:07:36;;;;;;;6.00;4.70;;;;;;;24.47;55.38;97435.08;109558;1252;68748;-69
2022/06/01 07:10:06;;;;;;;6.30;4.90;;;;;;;24.35;53.72;97430.86;109628;1251;68895;-69
2022/06/01 07:12:35;;;;;;;7.00;4.70;;;;;;;24.53;53.38;97431.95;109556;1252;59799;-73
2022/06/01 07:15:04;;;;;;;;;;;;;;;24.51;52.91;97429.34;109697;1252;59678;-69
2022/06/01 07:17:33;;;;;;;7.00;4.70;;;;;;;24.69;52.52;97428.30;109687;1251;69808;-68
2022/06/01 07:20:02;;;;;;;;;;;;;;;24.85;51.52;97426.54;109685;1251;67600;-70
2022/06/01 07:22:31;;;;;;;9.30;4.60;;;;;;;24.78;51.71;97424.04;109714;1251;68891;-70
2022/06/01 07:25:00;;;;;;;5.90;4.80;;;;;;;24.15;52.73;97424.73;109697;1253;59776;-68
2022/06/01 07:27:30;;;;;;;7.70;4.20;;;;;;;24.15;53.28;97426.05;109679;1252;59659;-69
2022/06/01 07:29:59;;;;;;;5.40;4.80;;;;;;;24.32;52.62;97426.80;109607;1252;70921;-68
2022/06/01 07:32:28;;;;;;;;;;;;;;;24.44;52.81;97429.11;109604;1253;68629;-71
2022/06/01 07:34:57;;;;;;;5.30;4.40;;;;;;;24.56;52.50;97429.45;109738;1251;68851;-70
2022/06/01 07:43:08;;;;;;;4.60;3.50;;;;;;;24.92;50.54;97430.66;109690;1253;71737;-71
2022/06/01 07:45:41;;;;;;;5.10;4.50;;;;;;;24.88;50.52;97429.30;109965;1252;67835;-68
2022/06/01 07:48:11;;;;;;;7.20;5.00;;;;;;;25.04;49.43;97424.91;109886;1253;68626;-69
2022/06/01 07:51:00;;;;;;;5.70;4.00;;;;;;;24.63;51.35;97424.69;109560;1253;60432;-70
2022/06/01 07:53:30;;;;;;;7.30;4.50;;;;;;;24.71;50.95;97432.34;109590;1253;59727;-71
2022/06/01 07:55:59;;;;;;;;;;;;;;;25.10;50.56;97428.80;109573;1253;69959;-70
2022/06/01 07:58:28;;;;;;;7.70;5.20;;;;;;;25.36;50.24;97430.36;109565;1253;67646;-71
2022/06/01 08:00:57;;;;;;;7.50;4.80;;;;;;;25.37;49.87;97430.23;109741;1252;69705;-72
2022/06/01 08:03:28;;;;;;;6.70;4.90;;;;;;;25.51;49.12;97426.58;109710;1252;59751;-64
2022/06/01 08:06:00;;;;;;;5.90;5.00;;;;;;;25.67;48.98;97426.38;109676;1253;59695;-71
2022/06/01 08:08:29;;;;;;;6.20;4.30;;;;;;;25.51;49.72;97430.49;109567;1253;71558;-71
2022/06/01 08:10:59;;;;;;;4.80;4.30;;;;;;;25.42;49.56;97427.90;109517;1252;68693;-67
2022/06/01 08:13:28;;;;;;;5.10;4.00;;;;;;;25.58;49.12;97428.39;109696;1252;67620;-70
2022/06/01 08:15:58;;;;;;;;;;;;;;;25.80;48.00;97432.98;109749;1253;59680;-70
2022/06/01 08:18:28;;;;;;;9.80;4.40;;;;;;;25.61;47.65;97434.77;109605;1251;59688;-70
2022/06/01 08:20:57;;;;;;;5.50;4.20;;;;;;;26.14;47.74;97437.88;109754;1252;71581;-72
2022/06/01 08:23:29;;;;;;;6.00;5.20;;;;;;;26.52;47.28;97437.08;109750;1251;69002;-72
2022/06/01 08:25:59;;;;;;;6.30;4.70;;;;;;;26.94;46.34;97437.52;109646;1251;69672;-70
2022/06/01 08:28:28;;;;;;;5.50;4.30;;;;;;;27.10;45.46;97436.73;109613;1253;59773;-71
2022/06/01 08:30:57;;;;;;;;;;;;;;;27.03;45.96;97441.76;109628;1252;59660;-70
2022/06/01 08:33:26;;;;;;;6.50;4.30;;;;;;;26.84;44.49;97439.80;110154;1252;71843;-70
2022/06/01 08:36:02;;;;;;;6.10;4.40;;;;;;;27.33;45.14;97435.06;109839;1251;68299;-70
2022/06/01 08:38:31;;;;;;;5.90;4.20;;;;;;;27.80;44.02;97430.38;109772;1250;69421;-71
2022/06/01 08:41:08;;;;;;;5.90;4.00;;;;;;;28.11;42.34;97432.80;109712;1250;59817;-71
2022/06/01 08:43:45;;;;;;;6.00;4.50;;;;;;;28.24;41.40;97430.08;109714;1251;59759;-72
2022/06/01 08:46:15;;;;;;;4.40;3.40;;;;;;;28.49;41.10;97429.63;109759;1250;70609;-66
2022/06/01 08:48:49;;;;;;;6.80;4.30;;;;;;;28.70;40.07;97428.52;109827;1250;67798;-71
2022/06/01 08:51:23;;;;;;;5.10;3.70;;;;;;;28.81;39.16;97429.46;109773;1250;68655;-71
2022/06/01 08:53:57;;;;;;;6.70;3.90;;;;;;;28.99;38.66;97427.30;109730;1250;60215;-71
2022/06/01 08:56:50;;;;;;;5.30;4.00;;;;;;;29.10;38.22;97429.78;109796;1250;59817;-72
2022/06/01 08:59:38;;;;;;;5.20;4.10;;;;;;;28.76;38.20;97424.05;109622;1250;70839;-73
2022/06/01 09:02:26;;;;;;;4.60;4.10;;;;;;;28.94;38.63;97426.33;109745;1250;66845;-71
2022/06/01 09:05:08;;;;;;;4.20;3.60;;;;;;;28.01;38.38;97420.14;109708;1250;69428;-70
2022/06/01 09:07:51;;;;;;;5.80;4.20;;;;;;;28.02;39.07;97423.77;109760;1250;59771;-72
2022/06/01 09:10:30;;;;;;;4.80;3.90;;;;;;;28.00;38.14;97422.09;109743;1250;59715;-71
2022/06/01 09:13:08;;;;;;;4.70;4.20;;;;;;;28.11;38.90;97421.90;109916;1250;71610;-71
2022/06/01 09:15:44;;;;;;;4.40;3.90;;;;;;;28.11;38.77;97421.85;109790;1250;68608;-70
2022/06/01 09:18:21;;;;;;;4.80;3.80;;;;;;;28.16;39.13;97419.41;109747;1250;69678;-66
2022/06/01 09:23:42;;;;;;;4.50;3.40;;;;;;;29.23;37.81;97414.36;109991;1250;59690;-71
2022/06/01 09:26:24;;;;;;;7.20;4.60;;;;;;;29.85;37.93;97414.27;109777;1250;71438;-71
2022/06/01 09:28:57;;;;;;;3.60;3.30;;;;;;;30.06;36.63;97419.09;109781;1250;68459;-66
2022/06/01 09:31:42;;;;;;;5.60;3.30;;;;;;;30.01;36.06;97419.64;109785;1250;68806;-70
2022/06/01 09:34:30;;;;;;;3.70;3.30;;;;;;;30.57;35.92;97423.18;109776;1250;59779;-70
2022/06/01 09:37:07;;;;;;;5.50;4.90;;;;;;;30.90;35.70;97425.69;109742;1250;59768;-69
2022/06/01 09:39:39;;;;;;;4.50;3.70;;;;;;;30.99;35.69;97425.80;109779;1250;72186;-71
2022/06/01 09:42:28;;;;;;;5.10;4.00;;;;;;;30.75;36.13;97423.07;109673;1251;68690;-70
2022/06/01 09:45:00;;;;;;;5.90;4.30;;;;;;;30.68;35.64;97422.66;109733;1250;69625;-69
2022/06/01 09:47:39;;;;;;;5.00;3.70;;;;;;;29.87;36.28;97423.64;109800;1250;59677;-70
2022/06/01 09:50:23;;;;;;;4.70;4.00;;;;;;;28.91;38.26;97420.49;109589;1253;59725;-71
2022/06/01 09:52:59;;;;;;;3.90;3.50;;;;;;;28.81;39.97;97421.23;109810;1250;70607;-67
2022/06/01 09:55:30;;;;;;;7.40;4.30;;;;;;;28.99;39.42;97421.19;109797;1250;67606;-71
2022/06/01 09:58:10;;;;;;;4.30;3.90;;;;;;;28.71;39.82;97415.96;109774;1250;69457;-68
2022/06/01 10:06:31;;;;;;;4.90;3.30;;;;;;;29.65;40.29;97411.05;109779;1250;71585;-72
2022/06/01 10:09:12;;;;;;;5.10;4.10;;;;;;;30.03;38.15;97410.36;110454;1250;68551;-71
2022/06/01 10:11:46;;;;;;;6.40;4.00;;;;;;;29.77;37.22;97410.27;109785;1250;69459;-68
2022/06/01 10:14:27;;;;;;;4.30;3.60;;;;;;;30.00;36.90;97412.93;109439;1254;59702;-72
2022/06/01 10:17:27;;;;;;;4.40;3.30;;;;;;;29.99;36.04;97410.21;109796;1250;59670;-70
2022/06/01 10:20:21;;;;;;;3.70;3.10;;;;;;;29.94;35.90;97405.90;109798;1250;70766;-69
2022/06/01 10:23:26;;;;;;;4.80;3.70;;;;;;;29.48;34.34;97407.88;109724;1251;68561;-70
2022/06/01 10:26:10;;;;;;;4.40;3.50;;;;;;;29.02;36.15;97409.79;109720;1250;67970;-71
2022/06/01 10:28:55;;;;;;;4.20;3.70;;;;;;;28.93;36.48;97406.29;109704;1250;59749;-73
2022/06/01 10:31:46;;;;;;;4.00;3.00;;;;;;;29.06;35.28;97401.70;109738;1250;59678;-66
2022/06/01 10:34:48;;;;;;;5.00;3.60;;;;;;;28.90;34.88;97400.79;109770;1250;71848;-68
2022/06/01 10:37:29;;;;;;;4.00;3.10;;;;;;;28.75;35.33;97401.02;109603;1250;67679;-71
2022/06/01 10:40:08;;;;;;;4.20;3.30;;;;;;;28.45;35.57;97399.83;109671;1250;69491;-71
2022/06/01 10:43:18;;;;;;;4.80;3.70;;;;;;;28.13;37.06;97398.39;109746;1250;59697;-71
2022/06/01 10:46:14;;;;;;;6.40;3.50;;;;;;;27.68;37.66;97395.02;109805;1250;59761;-71
2022/06/01 10:49:08;;;;;;;3.70;2.90;;;;;;;27.93;37.42;97397.27;109566;1250;70817;-67
2022/06/01 10:51:37;;;;;;;4.60;3.60;;;;;;;28.16;36.26;97396.13;109580;1250;67951;-70
2022/06/01 10:54:31;;;;;;;4.50;3.60;;;;;;;28.25;37.40;97390.11;110067;1253;68506;-71
2022/06/01 10:57:08;;;;;;;4.70;3.80;;;;;;;28.59;38.36;97389.27;109735;1250;59699;-67
2022/06/01 10:59:38;;;;;;;4.10;3.30;;;;;;;28.91;38.42;97386.61;109692;1250;59716;-71
2022/06/01 11:02:33;;;;;;;4.10;3.20;;;;;;;28.93;36.19;97386.27;109745;1250;70899;-70
2022/06/01 11:05:31;;;;;;;3.30;2.30;;;;;;;28.85;34.02;97380.89;109790;1251;67936;-71
2022/06/01 11:08:03;;;;;;;5.00;2.70;;;;;;;29.14;32.51;97378.48;109687;1250;68749;-70
2022/06/01 11:10:44;;;;;;;5.10;3.80;;;;;;;29.23;31.82;97376.56;109676;1250;59762;-70
2022/06/01 11:13:28;;;;;;;4.10;3.10;;;;;;;29.16;31.36;97377.25;109756;1250;59689;-69
2022/06/01 11:16:00;;;;;;;6.70;4.70;;;;;;;29.14;30.71;97369.56;109640;1253;71577;-72
2022/06/01 11:18:59;;;;;;;4.50;2.80;;;;;;;29.05;30.29;97369.34;109761;1251;68648;-71
2022/06/01 11:22:00;;;;;;;5.20;3.40;;;;;;;29.16;31.18;97367.52;109628;1250;69481;-70
2022/06/01 11:24:39;;;;;;;7.10;4.60;;;;;;;29.17;30.69;97364.67;109636;1250;59678;-65
2022/06/01 11:27:15;;;;;;;5.30;3.70;;;;;;;29.13;31.12;97363.09;109602;1251;59699;-70
2022/06/01 11:29:51;;;;;;;8.40;5.80;;;;;;;29.20;31.10;97362.55;109728;1250;71578;-69
2022/06/01 11:32:47;;;;;;;5.30;3.80;;;;;;;28.95;32.85;97361.84;109658;1250;67939;-70
2022/06/01 11:35:30;;;;;;;6.40;5.10;;;;;;;28.76;33.02;97354.50;109567;1253;69232;-70
2022/06/01 11:38:19;;;;;;;13.40;10.30;;;;;;;28.97;34.13;97357.31;109651;1250;59709;-71
2022/06/01 11:41:03;;;;;;;5.10;3.50;;;;;;;29.23;33.91;97353.91;110412;1250;59684;-70
2022/06/01 11:43:47;;;;;;;3.70;3.30;;;;;;;29.35;32.90;97352.08;109778;1250;72387;-67
2022/06/01 11:46:49;;;;;;;5.10;3.30;;;;;;;29.51;33.11;97350.96;109764;1250;68801;-70
2022/06/01 11:49:39;;;;;;;4.90;3.70;;;;;;;29.58;32.66;97346.67;109491;1253;69488;-69
2022/06/01 11:52:24;;;;;;;6.60;4.70;;;;;;;29.32;33.01;97346.21;109711;1250;59680;-70
2022/06/01 11:55:12;;;;;;;6.20;4.00;;;;;;;29.01;34.37;97351.02;110157;1252;59760;-69
2022/06/01 11:57:47;;;;;;;4.90;3.80;;;;;;;28.79;35.01;97352.27;109831;1250;71641;-69
2022/06/01 12:00:57;;;;;;;5.20;3.50;;;;;;;29.14;34.23;97351.88;109568;1253;67858;-70
2022/06/01 12:03:54;;;;;;;4.70;3.10;;;;;;;29.81;34.44;97349.20;109065;1260;68669;-69
2022/06/01 12:06:49;;;;;;;3.00;2.20;;;;;;;30.32;32.91;97347.88;109025;1260;59670;-70
2022/06/01 12:09:40;;;;;;;4.10;2.50;;;;;;;30.49;32.43;97341.73;109058;1260;59819;-66
2022/06/01 12:12:43;;;;;;;4.00;2.50;;;;;;;30.50;32.72;97340.95;109101;1259;72275;-71
2022/06/01 12:15:32;;;;;;;4.50;2.70;;;;;;;30.65;31.66;97337.89;109157;1259;68693;-70
2022/06/01 12:18:16;;;;;;;3.10;2.50;;;;;;;30.83;31.98;97336.07;109043;1260;68828;-70
2022/06/01 12:20:51;;;;;;;3.80;2.70;;;;;;;30.94;31.84;97338.71;109144;1260;59730;-70
2022/06/01 12:29:04;;;;;;;4.30;2.80;;;;;;;31.01;30.97;97345.41;109032;1258;67528;-71
2022/06/01 12:31:58;;;;;;;4.90;2.60;;;;;;;31.16;31.58;97346.05;109070;1260;68674;-72
2022/06/01 12:34:33;;;;;;;4.60;2.50;;;;;;;31.19;32.60;97348.90;109052;1258;59781;-70